createdAt,value
2019-03-31T00:02:07.493Z,20.57
2019-03-31T00:04:33.742Z,17.30
2019-03-31T00:06:59.977Z,19.77
2019-03-31T00:09:26.258Z,20.93
2019-03-31T00:11:52.490Z,13.60
2019-03-31T00:14:18.717Z,13.80
2019-03-31T00:16:44.974Z,10.67
2019-03-31T00:19:11.203Z,20.87
2019-03-31T00:21:37.465Z,14.63
2019-03-31T00:24:03.702Z,12.57
2019-03-31T00:26:29.947Z,10.10
2019-03-31T00:28:56.172Z,9.60
2019-03-31T00:31:22.835Z,14.73
2019-03-31T00:33:49.160Z,19.07
2019-03-31T00:36:15.422Z,11.83
2019-03-31T00:38:41.678Z,9.40
2019-03-31T00:41:07.904Z,8.73
2019-03-31T00:43:34.164Z,8.10
2019-03-31T00:46:00.510Z,7.30
2019-03-31T00:48:26.767Z,7.77
2019-03-31T00:50:52.998Z,8.83
2019-03-31T00:53:19.258Z,31.63
2019-03-31T00:55:45.486Z,31.17
2019-03-31T00:58:11.748Z,22.67
2019-03-31T01:00:46.189Z,14.53
2019-03-31T01:03:13.348Z,11.00
2019-03-31T01:05:40.871Z,8.97
2019-03-31T01:08:07.223Z,6.77
2019-03-31T01:10:33.444Z,8.63
2019-03-31T01:13:00.166Z,8.10
2019-03-31T01:15:28.222Z,8.53
2019-03-31T01:17:54.446Z,8.10
2019-03-31T01:20:21.005Z,9.17
2019-03-31T01:22:47.219Z,7.40
2019-03-31T01:25:13.577Z,9.13
2019-03-31T01:27:40.504Z,9.73
2019-03-31T01:30:08.958Z,10.47
2019-03-31T01:32:35.202Z,29.13
2019-03-31T01:35:01.786Z,17.20
2019-03-31T01:37:28.216Z,14.00
2019-03-31T01:39:54.445Z,9.50
2019-03-31T01:42:21.203Z,8.83
2019-03-31T01:44:47.837Z,8.97
2019-03-31T01:47:14.724Z,8.07
2019-03-31T01:49:40.955Z,8.60
2019-03-31T01:52:07.210Z,7.43
2019-03-31T01:54:33.506Z,9.47
2019-03-31T01:56:59.782Z,14.70
2019-03-31T01:59:26.018Z,12.50
2019-03-31T02:02:03.610Z,11.47
2019-03-31T02:04:20.326Z,12.40
2019-03-31T02:06:46.562Z,12.60
2019-03-31T02:09:12.830Z,9.47
2019-03-31T02:11:39.051Z,10.97
2019-03-31T02:14:05.307Z,9.87
2019-03-31T02:16:31.531Z,8.53
2019-03-31T02:18:57.820Z,13.17
2019-03-31T02:21:24.041Z,51.10
2019-03-31T02:23:50.277Z,35.63
2019-03-31T02:26:16.527Z,24.67
2019-03-31T02:28:42.765Z,17.03
2019-03-31T02:31:09.363Z,12.67
2019-03-31T02:33:35.599Z,9.97
2019-03-31T02:36:01.942Z,10.60
2019-03-31T02:38:28.460Z,10.73
2019-03-31T02:40:54.722Z,8.40
2019-03-31T02:43:20.947Z,9.23
2019-03-31T02:45:47.217Z,7.00
2019-03-31T02:48:13.494Z,9.40
2019-03-31T02:50:45.591Z,7.13
2019-03-31T02:53:12.596Z,8.80
2019-03-31T02:55:38.887Z,7.00
2019-03-31T02:58:05.954Z,6.53
2019-03-31T03:00:32.276Z,8.53
2019-03-31T03:02:59.523Z,7.20
2019-03-31T03:05:28.458Z,6.43
2019-03-31T03:07:56.022Z,5.67
2019-03-31T03:10:23.859Z,7.10
2019-03-31T03:12:50.887Z,8.60
2019-03-31T03:15:25.551Z,7.30
2019-03-31T03:17:51.766Z,7.70
2019-03-31T03:20:18.033Z,8.00
2019-03-31T03:22:44.277Z,7.40
2019-03-31T03:25:10.540Z,6.93
2019-03-31T03:27:36.762Z,7.50
2019-03-31T03:30:03.718Z,6.20
2019-03-31T03:32:29.992Z,7.43
2019-03-31T03:34:56.250Z,7.13
2019-03-31T03:37:22.502Z,7.67
2019-03-31T03:39:48.747Z,7.07
2019-03-31T03:42:14.996Z,8.63
2019-03-31T03:44:41.230Z,8.60
2019-03-31T03:47:07.534Z,6.57
2019-03-31T03:49:33.761Z,6.87
2019-03-31T03:52:00.027Z,7.13
2019-03-31T03:54:26.273Z,6.90
2019-03-31T03:56:52.516Z,6.27
2019-03-31T03:59:18.738Z,8.57
2019-03-31T04:01:44.987Z,7.60
2019-03-31T04:04:11.316Z,7.67
2019-03-31T04:06:37.566Z,7.07
2019-03-31T04:09:05.792Z,7.77
2019-03-31T04:11:32.392Z,8.27
2019-03-31T04:13:58.618Z,7.60
2019-03-31T04:16:25.373Z,7.03
2019-03-31T04:18:51.702Z,7.40
2019-03-31T04:21:18.118Z,7.77
2019-03-31T04:23:44.487Z,7.17
2019-03-31T04:26:10.696Z,7.53
2019-03-31T04:28:36.956Z,6.53
2019-03-31T04:31:03.179Z,7.27
2019-03-31T04:33:48.295Z,9.10
2019-03-31T04:35:57.966Z,6.30
2019-03-31T04:38:24.217Z,9.67
2019-03-31T04:40:50.446Z,8.93
2019-03-31T04:43:16.703Z,7.57
2019-03-31T04:45:43.694Z,7.27
2019-03-31T04:48:09.999Z,7.40
2019-03-31T04:50:36.222Z,7.10
2019-03-31T04:53:02.556Z,8.60
2019-03-31T04:55:28.794Z,7.03
2019-03-31T04:57:55.009Z,8.83
2019-03-31T05:00:21.266Z,7.50
2019-03-31T05:02:47.489Z,8.50
2019-03-31T05:05:13.762Z,8.63
2019-03-31T05:07:39.984Z,6.47
2019-03-31T05:10:06.814Z,7.40
2019-03-31T05:12:33.071Z,8.03
2019-03-31T05:14:59.893Z,7.17
2019-03-31T05:17:26.139Z,6.33
2019-03-31T05:19:52.367Z,7.87
2019-03-31T05:22:18.610Z,15.13
2019-03-31T05:24:44.850Z,10.50
2019-03-31T05:27:11.118Z,13.33
2019-03-31T05:29:37.338Z,18.73
2019-03-31T05:32:03.591Z,1999.90
2019-03-31T05:34:29.810Z,1999.90
2019-03-31T05:36:56.080Z,1999.90
2019-03-31T05:39:22.297Z,1999.90
2019-03-31T05:41:48.522Z,1999.90
2019-03-31T05:44:14.785Z,1999.90
2019-03-31T05:46:41.040Z,1999.90
2019-03-31T05:49:07.296Z,1999.90
2019-03-31T05:51:33.527Z,1999.90
2019-03-31T05:53:59.792Z,1999.90
2019-03-31T05:56:26.231Z,1999.90
2019-03-31T05:58:52.490Z,1999.90
2019-03-31T06:01:18.712Z,1999.90
2019-03-31T06:03:45.021Z,26.60
2019-03-31T06:06:11.250Z,21.47
2019-03-31T06:08:37.478Z,20.17
2019-03-31T06:11:03.727Z,17.27
2019-03-31T06:13:30.047Z,14.17
2019-03-31T06:15:56.406Z,12.90
2019-03-31T06:18:22.638Z,12.50
2019-03-31T06:20:48.904Z,10.97
2019-03-31T06:23:15.123Z,10.67
2019-03-31T06:25:41.409Z,9.67
2019-03-31T06:28:07.620Z,9.30
2019-03-31T06:30:33.857Z,8.38
2019-03-31T06:33:00.106Z,8.88
2019-03-31T06:35:26.327Z,7.75
2019-03-31T06:37:52.589Z,7.40
2019-03-31T06:40:18.822Z,8.20
2019-03-31T06:42:45.078Z,7.17
2019-03-31T06:45:11.506Z,7.60
2019-03-31T06:47:37.791Z,9.08
2019-03-31T06:50:06.283Z,7.05
2019-03-31T06:52:32.493Z,7.55
2019-03-31T06:54:58.733Z,7.83
2019-03-31T06:57:24.972Z,7.53
2019-03-31T06:59:51.222Z,7.55
2019-03-31T07:02:17.442Z,9.33
2019-03-31T07:04:43.724Z,9.80
2019-03-31T07:07:10.070Z,9.15
2019-03-31T07:09:36.294Z,8.80
2019-03-31T07:12:03.031Z,9.90
2019-03-31T07:14:29.241Z,8.53
2019-03-31T07:16:55.517Z,21.80
2019-03-31T07:19:21.746Z,8.60
2019-03-31T07:21:48.032Z,7.22
2019-03-31T07:24:14.350Z,10.55
2019-03-31T07:26:40.594Z,8.40
2019-03-31T07:29:06.805Z,8.38
2019-03-31T07:31:33.119Z,7.78
2019-03-31T07:33:59.401Z,7.35
2019-03-31T07:36:25.624Z,7.00
2019-03-31T07:39:12.046Z,6.10
2019-03-31T07:41:38.371Z,7.20
2019-03-31T07:44:04.588Z,7.00
2019-03-31T07:46:30.863Z,7.47
2019-03-31T07:48:57.118Z,6.95
2019-03-31T07:51:23.351Z,7.47
2019-03-31T07:53:49.597Z,7.37
2019-03-31T07:56:16.213Z,7.70
2019-03-31T07:58:42.709Z,7.37
2019-03-31T08:01:08.907Z,7.60
2019-03-31T08:03:35.178Z,6.80
2019-03-31T08:06:01.406Z,7.65
2019-03-31T08:08:27.626Z,7.55
2019-03-31T08:10:53.914Z,8.35
2019-03-31T08:13:20.144Z,7.87
2019-03-31T08:15:46.396Z,8.35
2019-03-31T08:18:12.634Z,11.00
2019-03-31T08:20:38.888Z,9.65
2019-03-31T08:23:05.406Z,8.88
2019-03-31T08:25:31.691Z,8.20
2019-03-31T08:27:57.920Z,10.20
2019-03-31T08:30:24.238Z,9.93
2019-03-31T08:32:50.489Z,9.63
2019-03-31T08:35:17.120Z,8.90
2019-03-31T08:37:43.369Z,9.75
2019-03-31T08:40:11.107Z,11.35
2019-03-31T08:42:37.353Z,10.50
2019-03-31T08:45:05.074Z,11.13
2019-03-31T08:47:31.348Z,9.57
2019-03-31T08:49:57.570Z,10.83
2019-03-31T08:52:23.849Z,10.60
2019-03-31T08:54:50.075Z,10.07
2019-03-31T08:57:16.299Z,11.30
2019-03-31T08:59:42.559Z,14.07
2019-03-31T09:02:26.046Z,14.60
2019-03-31T09:04:52.490Z,18.83
2019-03-31T09:07:18.711Z,16.90
2019-03-31T09:09:45.266Z,18.40
2019-03-31T09:12:11.494Z,19.97
2019-03-31T09:14:37.731Z,17.10
2019-03-31T09:17:03.954Z,14.47
2019-03-31T09:19:30.242Z,12.00
2019-03-31T09:21:56.463Z,14.43
2019-03-31T09:24:22.685Z,16.37
2019-03-31T09:26:48.925Z,12.27
2019-03-31T09:29:15.150Z,12.73
2019-03-31T09:31:41.393Z,11.17
2019-03-31T09:34:07.626Z,10.30
2019-03-31T09:36:33.882Z,12.90
2019-03-31T09:39:00.106Z,11.47
2019-03-31T09:41:26.368Z,16.13
2019-03-31T09:43:52.599Z,12.83
2019-03-31T09:46:18.852Z,14.90
2019-03-31T09:48:45.098Z,16.85
2019-03-31T09:51:11.327Z,13.27
2019-03-31T09:53:37.586Z,11.50
2019-03-31T09:56:04.190Z,11.03
2019-03-31T09:58:30.451Z,11.33
2019-03-31T10:00:56.786Z,12.37
2019-03-31T10:03:23.410Z,15.53
2019-03-31T10:05:49.933Z,13.23
2019-03-31T10:08:16.378Z,12.50
2019-03-31T10:10:42.806Z,11.20
2019-03-31T10:13:09.068Z,18.48
2019-03-31T10:15:35.530Z,17.12
2019-03-31T10:18:02.158Z,14.55
2019-03-31T10:20:31.255Z,14.77
2019-03-31T10:22:56.544Z,13.50
2019-03-31T10:25:22.804Z,12.83
2019-03-31T10:27:49.026Z,12.43
2019-03-31T10:30:19.083Z,12.47
2019-03-31T10:32:45.316Z,12.47
2019-03-31T10:35:11.579Z,11.17
2019-03-31T10:37:37.806Z,10.87
2019-03-31T10:40:06.275Z,12.33
2019-03-31T10:42:32.502Z,13.03
2019-03-31T10:44:58.737Z,13.63
2019-03-31T10:47:25.012Z,12.27
2019-03-31T10:49:51.550Z,17.90
2019-03-31T10:52:17.795Z,14.33
2019-03-31T10:54:44.025Z,13.70
2019-03-31T10:57:10.650Z,17.40
2019-03-31T10:59:36.880Z,16.52
2019-03-31T11:02:03.504Z,12.33
2019-03-31T11:04:29.746Z,10.77
2019-03-31T11:06:59.558Z,11.23
2019-03-31T11:09:24.060Z,9.77
2019-03-31T11:11:50.286Z,10.47
2019-03-31T11:14:16.542Z,10.80
2019-03-31T11:16:42.779Z,9.40
2019-03-31T11:19:09.204Z,10.77
2019-03-31T11:21:40.253Z,14.90
2019-03-31T11:24:05.470Z,13.10
2019-03-31T11:26:31.694Z,11.73
2019-03-31T11:28:57.925Z,8.97
2019-03-31T11:31:24.191Z,9.97
2019-03-31T11:33:50.418Z,9.53
2019-03-31T11:36:16.728Z,7.13
2019-03-31T11:38:43.315Z,8.20
2019-03-31T11:41:12.831Z,5.73
2019-03-31T11:43:39.640Z,5.23
2019-03-31T11:46:06.106Z,6.77
2019-03-31T11:48:32.330Z,9.00
2019-03-31T11:51:00.413Z,6.27
2019-03-31T11:53:26.629Z,8.07
2019-03-31T11:55:52.860Z,7.43
2019-03-31T11:58:19.114Z,7.83
2019-03-31T12:00:47.247Z,7.23
2019-03-31T12:03:13.500Z,4.83
2019-03-31T12:05:39.741Z,4.53
2019-03-31T12:08:05.991Z,4.77
2019-03-31T12:10:32.214Z,5.23
2019-03-31T12:12:58.550Z,5.93
2019-03-31T12:15:24.786Z,5.53
2019-03-31T12:17:51.012Z,6.80
2019-03-31T12:20:17.464Z,7.37
2019-03-31T12:22:43.726Z,6.57
2019-03-31T12:25:10.382Z,6.80
2019-03-31T12:27:36.970Z,6.63
2019-03-31T12:30:05.028Z,6.20
2019-03-31T12:32:31.265Z,6.27
2019-03-31T12:34:57.546Z,6.70
2019-03-31T12:37:23.771Z,6.30
2019-03-31T12:39:50.115Z,7.17
2019-03-31T12:42:16.362Z,8.23
2019-03-31T12:44:42.606Z,6.87
2019-03-31T12:47:09.221Z,5.23
2019-03-31T12:49:35.446Z,9.60
2019-03-31T12:52:01.710Z,6.30
2019-03-31T12:54:27.954Z,7.93
2019-03-31T12:56:54.202Z,5.17
2019-03-31T12:59:20.428Z,7.17
2019-03-31T13:01:46.699Z,25.70
2019-03-31T13:04:12.992Z,13.00
2019-03-31T13:06:39.211Z,8.47
2019-03-31T13:09:06.966Z,6.30
2019-03-31T13:11:33.189Z,6.83
2019-03-31T13:13:59.442Z,6.67
2019-03-31T13:16:25.675Z,6.13
2019-03-31T13:18:51.931Z,5.90
2019-03-31T13:21:18.162Z,6.57
2019-03-31T13:23:44.434Z,6.73
2019-03-31T13:26:10.758Z,5.07
2019-03-31T13:28:37.011Z,4.97
2019-03-31T13:31:03.369Z,8.43
2019-03-31T13:33:29.604Z,5.17
2019-03-31T13:35:55.835Z,6.33
2019-03-31T13:38:22.051Z,4.00
2019-03-31T13:40:50.497Z,6.27
2019-03-31T13:43:16.494Z,5.10
2019-03-31T13:45:42.781Z,5.00
2019-03-31T13:48:08.999Z,4.40
2019-03-31T13:50:35.266Z,5.97
2019-03-31T13:53:01.526Z,6.83
2019-03-31T13:55:27.760Z,7.13
2019-03-31T13:57:54.753Z,8.07
2019-03-31T14:00:40.406Z,4.77
2019-03-31T14:03:06.922Z,5.63
2019-03-31T14:05:33.137Z,4.57
2019-03-31T14:07:59.391Z,6.07
2019-03-31T14:10:26.331Z,6.00
2019-03-31T14:12:52.586Z,4.77
2019-03-31T14:15:19.743Z,3.83
2019-03-31T14:17:46.178Z,4.10
2019-03-31T14:20:12.706Z,4.00
2019-03-31T14:22:39.173Z,3.97
2019-03-31T14:25:05.502Z,3.10
2019-03-31T14:27:31.718Z,3.50
2019-03-31T14:29:57.975Z,3.63
2019-03-31T14:32:24.322Z,3.77
2019-03-31T14:34:50.582Z,5.13
2019-03-31T14:37:16.801Z,4.00
2019-03-31T14:39:43.046Z,3.17
2019-03-31T14:42:09.265Z,4.13
2019-03-31T14:44:35.513Z,4.50
2019-03-31T14:47:01.765Z,2.97
2019-03-31T14:49:28.142Z,3.07
2019-03-31T14:51:54.362Z,2.77
2019-03-31T14:54:20.591Z,2.53
2019-03-31T14:56:46.839Z,2.67
2019-03-31T14:59:13.062Z,5.60
2019-03-31T15:01:39.313Z,6.00
2019-03-31T15:04:05.553Z,4.40
2019-03-31T15:06:31.796Z,4.33
2019-03-31T15:08:58.018Z,3.53
2019-03-31T15:11:24.274Z,3.03
2019-03-31T15:13:50.506Z,4.20
2019-03-31T15:16:16.760Z,3.07
2019-03-31T15:18:42.991Z,3.40
2019-03-31T15:21:09.214Z,2.80
2019-03-31T15:23:35.469Z,2.57
2019-03-31T15:26:01.702Z,2.30
2019-03-31T15:28:27.963Z,2.80
2019-03-31T15:30:54.210Z,2.50
2019-03-31T15:33:20.450Z,3.20
2019-03-31T15:35:46.666Z,3.70
2019-03-31T15:38:12.915Z,3.30
2019-03-31T15:40:39.169Z,2.27
2019-03-31T15:43:05.479Z,3.13
2019-03-31T15:45:31.838Z,2.10
2019-03-31T15:47:58.085Z,2.20
2019-03-31T15:50:24.431Z,2.77
2019-03-31T15:52:50.655Z,3.50
2019-03-31T15:55:16.910Z,3.77
2019-03-31T15:57:43.151Z,2.53
2019-03-31T16:00:10.719Z,2.23
2019-03-31T16:02:37.069Z,5.60
2019-03-31T16:05:05.730Z,2.67
2019-03-31T16:07:31.983Z,2.47
2019-03-31T16:09:58.206Z,2.20
2019-03-31T16:12:24.453Z,2.40
2019-03-31T16:14:51.062Z,4.10
2019-03-31T16:17:17.339Z,2.20
2019-03-31T16:19:43.594Z,3.80
2019-03-31T16:22:09.838Z,3.03
2019-03-31T16:24:43.794Z,3.10
2019-03-31T16:27:10.065Z,2.20
2019-03-31T16:29:36.286Z,2.50
2019-03-31T16:32:02.672Z,2.87
2019-03-31T16:34:29.018Z,2.80
2019-03-31T16:36:55.296Z,2.00
2019-03-31T16:39:22.085Z,1.90
2019-03-31T16:41:48.249Z,1.77
2019-03-31T16:44:14.512Z,2.33
2019-03-31T16:46:40.765Z,2.47
2019-03-31T16:49:07.029Z,2.27
2019-03-31T16:51:33.254Z,2.87
2019-03-31T16:53:59.528Z,2.10
2019-03-31T16:56:25.751Z,2.10
2019-03-31T16:58:52.043Z,1.93
2019-03-31T17:01:18.226Z,2.23
2019-03-31T17:03:44.730Z,2.70
2019-03-31T17:06:11.262Z,2.03
2019-03-31T17:08:37.491Z,2.57
2019-03-31T17:11:05.603Z,2.20
2019-03-31T17:13:32.038Z,2.33
2019-03-31T17:15:58.286Z,3.13
2019-03-31T17:18:24.518Z,2.70
2019-03-31T17:20:51.260Z,2.47
2019-03-31T17:23:17.500Z,2.90
2019-03-31T17:25:43.771Z,3.13
2019-03-31T17:28:10.443Z,2.77
2019-03-31T17:30:36.670Z,3.40
2019-03-31T17:33:03.038Z,3.10
2019-03-31T17:35:29.298Z,2.03
2019-03-31T17:37:55.915Z,2.23
2019-03-31T17:40:22.234Z,1.60
2019-03-31T17:42:48.481Z,3.93
2019-03-31T17:45:17.270Z,2.73
2019-03-31T17:47:43.271Z,2.50
2019-03-31T17:50:09.831Z,2.60
2019-03-31T17:52:36.424Z,2.37
2019-03-31T17:55:04.085Z,3.33
2019-03-31T17:57:30.661Z,4.80
2019-03-31T17:59:56.926Z,3.73
2019-03-31T18:02:23.162Z,2.97
2019-03-31T18:04:49.410Z,2.73
2019-03-31T18:07:15.630Z,2.37
2019-03-31T18:09:41.897Z,4.85
2019-03-31T18:12:08.110Z,2.53
2019-03-31T18:14:34.382Z,3.03
2019-03-31T18:17:00.642Z,3.20
2019-03-31T18:19:26.861Z,2.90
2019-03-31T18:21:53.110Z,3.07
2019-03-31T18:24:19.382Z,2.50
2019-03-31T18:26:46.202Z,3.03
2019-03-31T18:29:12.802Z,3.97
2019-03-31T18:31:39.055Z,3.23
2019-03-31T18:34:05.581Z,3.23
2019-03-31T18:36:37.032Z,2.90
2019-03-31T18:38:59.860Z,3.73
2019-03-31T18:41:26.150Z,3.00
2019-03-31T18:43:52.394Z,3.00
2019-03-31T18:46:18.646Z,5.37
2019-03-31T18:48:44.903Z,4.87
2019-03-31T18:51:11.148Z,3.97
2019-03-31T18:53:56.106Z,6.03
2019-03-31T18:56:40.759Z,3.07
2019-03-31T18:59:25.953Z,3.30
2019-03-31T19:01:54.081Z,4.33
2019-03-31T19:04:22.242Z,2.53
2019-03-31T19:06:59.406Z,122.67
2019-03-31T19:09:44.362Z,145.30
2019-03-31T19:12:18.849Z,75.63
2019-03-31T19:14:56.196Z,34.77
2019-03-31T19:17:33.403Z,16.07
2019-03-31T19:20:10.619Z,7.40
2019-03-31T19:22:41.958Z,6.40
2019-03-31T19:25:10.582Z,3.73
2019-03-31T19:27:55.334Z,4.00
2019-03-31T19:30:32.204Z,5.20
2019-03-31T19:33:09.342Z,8.23
2019-03-31T19:35:43.505Z,9.07
2019-03-31T19:38:29.030Z,6.37
2019-03-31T19:41:03.926Z,4.73
2019-03-31T19:43:30.246Z,5.37
2019-03-31T19:46:07.414Z,5.23
2019-03-31T19:48:44.582Z,4.20
2019-03-31T19:51:28.101Z,3.10
2019-03-31T19:54:13.042Z,4.10
2019-03-31T19:56:43.997Z,3.67
2019-03-31T19:59:12.183Z,3.67
2019-03-31T20:01:43.071Z,3.93
2019-03-31T20:04:27.771Z,4.47
2019-03-31T20:06:55.923Z,4.07
2019-03-31T20:09:36.331Z,3.70
2019-03-31T20:12:04.711Z,9.70
2019-03-31T20:14:51.167Z,6.87
2019-03-31T20:17:28.691Z,5.23
2019-03-31T20:20:13.352Z,4.63
2019-03-31T20:22:41.538Z,4.97
2019-03-31T20:25:15.620Z,5.27
2019-03-31T20:27:50.052Z,6.70
2019-03-31T20:30:20.943Z,6.07
2019-03-31T20:33:07.567Z,3.57
2019-03-31T20:35:42.313Z,4.57
2019-03-31T20:38:10.479Z,4.90
2019-03-31T20:40:47.845Z,5.07
2019-03-31T20:43:25.286Z,4.87
2019-03-31T20:45:51.575Z,4.90
2019-03-31T20:48:17.870Z,4.37
2019-03-31T20:50:44.106Z,4.43
2019-03-31T20:53:10.333Z,5.67
2019-03-31T20:55:36.618Z,5.27
2019-03-31T20:58:03.051Z,6.10
2019-03-31T21:00:29.323Z,6.30
2019-03-31T21:02:55.546Z,5.30
2019-03-31T21:05:21.810Z,5.47
2019-03-31T21:07:48.045Z,5.43
2019-03-31T21:10:14.306Z,6.07
2019-03-31T21:12:40.547Z,5.87
2019-03-31T21:15:07.022Z,6.93
2019-03-31T21:17:33.263Z,6.63
2019-03-31T21:19:59.506Z,7.30
2019-03-31T21:22:25.862Z,6.67
2019-03-31T21:24:52.106Z,7.03
2019-03-31T21:27:18.388Z,5.60
2019-03-31T21:29:44.609Z,6.83
2019-03-31T21:32:10.896Z,8.67
2019-03-31T21:34:37.118Z,9.33
2019-03-31T21:37:03.380Z,8.37
2019-03-31T21:39:29.613Z,7.63
2019-03-31T21:41:55.874Z,6.47
2019-03-31T21:44:22.116Z,6.87
2019-03-31T21:46:48.388Z,7.90
2019-03-31T21:49:14.635Z,7.77
2019-03-31T21:51:40.874Z,7.77
2019-03-31T21:54:07.151Z,8.60
2019-03-31T21:56:33.505Z,7.97
2019-03-31T21:58:59.775Z,8.87
2019-03-31T22:01:26.217Z,7.60
2019-03-31T22:03:52.579Z,7.43
2019-03-31T22:06:18.810Z,9.63
2019-03-31T22:08:45.070Z,7.80
2019-03-31T22:11:11.326Z,8.33
2019-03-31T22:13:37.672Z,9.53
2019-03-31T22:16:04.031Z,8.70
2019-03-31T22:18:30.270Z,8.70
2019-03-31T22:20:56.518Z,10.30
2019-03-31T22:23:22.873Z,10.23
2019-03-31T22:25:49.198Z,8.93
2019-03-31T22:28:15.523Z,8.57
2019-03-31T22:30:42.400Z,9.43
2019-03-31T22:33:09.074Z,8.90
2019-03-31T22:35:35.297Z,9.53
2019-03-31T22:38:02.540Z,11.30
2019-03-31T22:40:28.885Z,9.67
2019-03-31T22:42:55.135Z,9.27
2019-03-31T22:45:21.354Z,9.90
2019-03-31T22:47:47.838Z,10.70
2019-03-31T22:50:14.283Z,9.77
2019-03-31T22:52:40.537Z,9.80
2019-03-31T22:55:07.071Z,13.30
2019-03-31T22:57:33.318Z,13.60
2019-03-31T22:59:59.538Z,10.83
2019-03-31T23:02:25.814Z,15.95
2019-03-31T23:04:52.056Z,13.47
2019-03-31T23:07:18.286Z,17.70
2019-03-31T23:09:44.546Z,18.35
2019-03-31T23:12:10.786Z,19.05
2019-03-31T23:14:37.042Z,14.77
2019-03-31T23:17:03.754Z,14.40
2019-03-31T23:19:30.010Z,12.63
2019-03-31T23:21:56.226Z,12.40
2019-03-31T23:24:22.482Z,13.60
2019-03-31T23:26:48.713Z,12.30
2019-03-31T23:29:15.036Z,12.63
2019-03-31T23:31:41.299Z,14.47
2019-03-31T23:34:07.527Z,24.65
2019-03-31T23:36:33.850Z,18.07
2019-03-31T23:39:01.993Z,15.90
2019-03-31T23:41:28.368Z,22.90
2019-03-31T23:43:54.597Z,23.17
2019-03-31T23:46:20.868Z,19.47
2019-03-31T23:48:47.094Z,16.73
2019-03-31T23:51:13.327Z,23.73
2019-03-31T23:53:39.703Z,18.07
2019-03-31T23:56:05.917Z,15.03
2019-03-31T23:58:32.162Z,17.60
